Aviation Digital Data Service (ADDS)

Output produced by METARs form (0225 UTC 19 October 2021)
found at http://www.aviationweather.gov/metar/data/
 
Forecast for: LIRA (CIAMPINO(IT-AFB/, IT)
Text: TAF LIRA 182300Z 1900/1924 VRB05KT 9999 FEW040
Forecast period: 0000 to 0900 UTC 19 October 2021
Forecast type: FROM: standard forecast or significant change
Winds: variable direction winds at 6 MPH (5 knots; 2.6 m/s)
Visibility: 6 or more miles (10+ km)
Ceiling: at least 12,000 feet AGL
Clouds: few clouds at 4000 feet AGL
Weather: no significant weather forecast for this period
Text: BECMG 1909/1911 26010KT
Forecast period: 0900 to 1600 UTC 19 October 2021
Forecast type: BECOMING: Conditions expected to become as follows by 1100 UTC 19 October 2021
Winds: from the W (260 degrees) at 12 MPH (10 knots; 5.1 m/s)
Visibility: 6 or more miles (10+ km)
Ceiling: at least 12,000 feet AGL
Clouds: few clouds at 4000 feet AGL
Weather: no significant weather forecast for this period
Text: BECMG 1916/1918 VRB05KT
Forecast period: 1600 UTC 19 October 2021 to 0000 UTC 20 October 2021
Forecast type: BECOMING: Conditions expected to become as follows by 1800 UTC 19 October 2021
Winds: variable direction winds at 6 MPH (5 knots; 2.6 m/s)
Visibility: 6 or more miles (10+ km)
Ceiling: at least 12,000 feet AGL
Clouds: few clouds at 4000 feet AGL
Weather: no significant weather forecast for this period